Time;durP1;ratioP1;P1;durP2;ratioP2;P2;SDS_P1;SDS_P2;PMS_P1;PMS_P2;Temp;Humidity;BMP_temperature;BMP_pressure;BME280_temperature;BME280_humidity;BME280_pressure;Samples;Min_cycle;Max_cycle;Signal;HPM_P1;HPM_P2
2021/12/19 00:00:56;;;;;;;;;;;7.20;99.90;;;;;;5103688;28;19916;-73
2021/12/19 00:11:06;;;;;;;;;;;7.20;99.90;;;;;;5113844;28;20032;-71
2021/12/19 00:13:32;;;;;;;;;;;7.20;99.90;;;;;;5112576;28;20010;-72
2021/12/19 00:15:58;;;;;;;;;;;7.20;99.90;;;;;;5113767;28;19920;-71
2021/12/19 00:18:23;;;;;;;;;;;7.20;99.90;;;;;;5101691;27;19915;-72
2021/12/19 00:20:49;;;;;;;;;;;7.20;99.90;;;;;;5101717;28;19919;-72
2021/12/19 00:23:15;;;;;;;;;;;7.20;99.90;;;;;;5112951;28;20297;-73
2021/12/19 00:25:40;;;;;;;;;;;7.20;99.90;;;;;;5112838;28;20409;-72
2021/12/19 00:28:06;;;;;;;;;;;7.20;99.90;;;;;;5112353;28;19958;-71
2021/12/19 00:30:31;;;;;;;;;;;7.10;99.90;;;;;;5112981;28;19919;-71
2021/12/19 00:32:57;;;;;;;;;;;7.20;99.90;;;;;;5109257;27;20328;-73
2021/12/19 00:35:23;;;;;;;;;;;7.20;99.90;;;;;;5111775;28;19923;-71
2021/12/19 00:37:49;;;;;;;;;;;7.20;99.90;;;;;;5112721;28;20380;-72
2021/12/19 00:40:15;;;;;;;;;;;7.20;99.90;;;;;;5112298;28;20421;-72
2021/12/19 00:42:41;;;;;;;;;;;7.20;99.90;;;;;;5109816;28;20005;-72
2021/12/19 00:45:30;;;;;;;;;;;7.20;99.90;;;;;;5112219;28;20285;-72
2021/12/19 00:47:56;;;;;;;;;;;7.20;99.90;;;;;;5105629;28;19919;-73
2021/12/19 00:50:21;;;;;;;;;;;7.20;99.90;;;;;;5112394;28;19915;-73
2021/12/19 00:52:47;;;;;;;;;;;7.20;99.90;;;;;;5098202;28;20297;-72
2021/12/19 00:55:13;;;;;;;;;;;7.20;99.90;;;;;;5111691;28;19919;-71
2021/12/19 00:57:39;;;;;;;;;;;7.20;99.90;;;;;;5112467;28;19922;-72
2021/12/19 01:00:05;;;;;;;;;;;7.20;99.90;;;;;;5073174;28;1064146;-70
2021/12/19 01:02:30;;;;;;;;;;;7.30;99.90;;;;;;5112453;28;20066;-72
2021/12/19 01:04:56;;;;;;;;;;;7.20;99.90;;;;;;5111460;27;20005;-73
2021/12/19 01:07:21;;;;;;;;;;;7.30;99.90;;;;;;5115763;28;20294;-72
2021/12/19 01:09:47;;;;;;;;;;;7.20;99.90;;;;;;5112669;28;19923;-72
2021/12/19 01:12:12;;;;;;;;;;;7.20;99.90;;;;;;5099746;27;20466;-72
2021/12/19 01:14:38;;;;;;;;;;;7.20;99.90;;;;;;5103302;28;20378;-72
2021/12/19 01:17:04;;;;;;;;;;;7.30;99.90;;;;;;5105367;28;19919;-72
2021/12/19 01:19:29;;;;;;;;;;;7.20;99.90;;;;;;5105118;28;19979;-72
2021/12/19 01:21:55;;;;;;;;;;;7.20;99.90;;;;;;5112996;28;20005;-72
2021/12/19 01:24:20;;;;;;;;;;;7.20;99.90;;;;;;5110619;28;19916;-72
2021/12/19 01:26:46;;;;;;;;;;;7.30;99.90;;;;;;5112461;28;20313;-72
2021/12/19 01:29:12;;;;;;;;;;;7.30;99.90;;;;;;5111496;28;19916;-72
2021/12/19 01:31:37;;;;;;;;;;;7.30;99.90;;;;;;5112412;28;19955;-72
2021/12/19 01:34:03;;;;;;;;;;;7.30;99.90;;;;;;5112177;28;20026;-72
2021/12/19 01:36:28;;;;;;;;;;;7.30;99.90;;;;;;5112061;28;20436;-72
2021/12/19 01:38:54;;;;;;;;;;;7.30;99.90;;;;;;5108597;27;19942;-71
2021/12/19 01:41:19;;;;;;;;;;;7.30;99.90;;;;;;5113729;28;19955;-71
2021/12/19 01:43:45;;;;;;;;;;;7.40;99.90;;;;;;5095435;28;19923;-72
2021/12/19 01:46:10;;;;;;;;;;;7.30;99.90;;;;;;5111265;28;19915;-70
2021/12/19 01:48:36;;;;;;;;;;;7.30;99.90;;;;;;5111331;28;19915;-71
2021/12/19 01:51:01;;;;;;;;;;;7.30;99.90;;;;;;5091608;28;19922;-72
2021/12/19 01:53:28;;;;;;;;;;;7.30;99.90;;;;;;5107848;27;19924;-73
2021/12/19 01:55:54;;;;;;;;;;;7.30;99.90;;;;;;5098053;27;19915;-71
2021/12/19 01:58:19;;;;;;;;;;;7.40;99.90;;;;;;5114969;27;19915;-70
2021/12/19 02:00:49;;;;;;;;;;;7.30;99.90;;;;;;5111699;27;19915;-72
2021/12/19 02:03:15;;;;;;;;;;;7.30;99.90;;;;;;5115185;27;19915;-71
2021/12/19 02:05:41;;;;;;;;;;;7.30;99.90;;;;;;5113961;27;19968;-72
2021/12/19 02:08:07;;;;;;;;;;;7.40;99.90;;;;;;5111907;27;19930;-71
2021/12/19 02:10:33;;;;;;;;;;;7.40;99.90;;;;;;5113971;27;19930;-73
2021/12/19 02:12:59;;;;;;;;;;;7.30;99.90;;;;;;5112263;27;20077;-71
2021/12/19 02:15:26;;;;;;;;;;;7.30;99.90;;;;;;5115405;27;19960;-72
2021/12/19 02:17:53;;;;;;;;;;;7.30;99.90;;;;;;5113801;27;19991;-73
2021/12/19 02:20:20;;;;;;;;;;;7.30;99.90;;;;;;5129248;27;19915;-71
2021/12/19 02:22:45;;;;;;;;;;;7.20;99.90;;;;;;5115055;27;19926;-71
2021/12/19 02:25:11;;;;;;;;;;;7.20;99.90;;;;;;5115860;27;19915;-69
2021/12/19 02:27:37;;;;;;;;;;;7.20;99.90;;;;;;5111911;27;20002;-71
2021/12/19 02:30:03;;;;;;;;;;;7.20;99.90;;;;;;5114799;27;20403;-70
2021/12/19 02:32:30;;;;;;;;;;;7.20;99.90;;;;;;5115122;27;20010;-72
2021/12/19 02:34:59;;;;;;;;;;;7.20;99.90;;;;;;5097038;27;19919;-71
2021/12/19 02:48:13;;;;;;;;;;;7.10;99.90;;;;;;5113672;27;19975;-72
2021/12/19 02:50:46;;;;;;;;;;;7.00;99.90;;;;;;5128316;27;19964;-72
2021/12/19 02:53:12;;;;;;;;;;;7.10;99.90;;;;;;5114103;27;19923;-71
2021/12/19 02:55:38;;;;;;;;;;;7.10;99.90;;;;;;5113405;27;19915;-72
2021/12/19 02:58:04;;;;;;;;;;;7.10;99.90;;;;;;5111299;27;19927;-72
2021/12/19 03:00:29;;;;;;;;;;;7.10;99.90;;;;;;5111144;27;19919;-72
2021/12/19 03:02:55;;;;;;;;;;;7.10;99.90;;;;;;5109625;27;19916;-72
2021/12/19 03:05:21;;;;;;;;;;;7.10;99.90;;;;;;5113730;27;19919;-72
2021/12/19 03:07:49;;;;;;;;;;;7.10;99.90;;;;;;5112003;27;19923;-72
2021/12/19 03:10:58;;;;;;;;;;;7.10;99.90;;;;;;5112380;27;19915;-71
2021/12/19 03:13:35;;;;;;;;;;;7.10;99.90;;;;;;5112166;27;19923;-70
2021/12/19 03:18:45;;;;;;;;;;;7.10;99.90;;;;;;5112332;27;19923;-73
2021/12/19 03:21:14;;;;;;;;;;;7.10;99.90;;;;;;5113703;27;19915;-70
2021/12/19 03:23:40;;;;;;;;;;;7.10;99.90;;;;;;5109017;27;19916;-73
2021/12/19 03:26:06;;;;;;;;;;;7.20;99.90;;;;;;5113863;27;20266;-72
2021/12/19 03:28:31;;;;;;;;;;;7.20;99.90;;;;;;5113584;27;20048;-72
2021/12/19 03:30:57;;;;;;;;;;;7.10;99.90;;;;;;5096284;27;19915;-72
2021/12/19 03:33:23;;;;;;;;;;;7.10;99.90;;;;;;5096420;27;19927;-71
2021/12/19 03:35:49;;;;;;;;;;;7.10;99.90;;;;;;5114295;27;19915;-70
2021/12/19 03:38:15;;;;;;;;;;;7.10;99.90;;;;;;5112461;27;19919;-71
2021/12/19 03:40:51;;;;;;;;;;;7.10;99.90;;;;;;5112439;27;20745;-73
2021/12/19 03:43:17;;;;;;;;;;;7.10;99.90;;;;;;5110322;27;20014;-72
2021/12/19 03:45:44;;;;;;;;;;;7.10;99.90;;;;;;5111792;27;20076;-73
2021/12/19 03:48:12;;;;;;;;;;;7.10;99.90;;;;;;5113581;27;19922;-71
2021/12/19 03:50:43;;;;;;;;;;;7.10;99.90;;;;;;5105630;27;19922;-72
2021/12/19 03:53:09;;;;;;;;;;;7.20;99.90;;;;;;5095406;27;20003;-72
2021/12/19 03:55:34;;;;;;;;;;;7.20;99.90;;;;;;5096801;27;19976;-70
2021/12/19 03:58:02;;;;;;;;;;;7.10;99.90;;;;;;5107421;27;19920;-73
2021/12/19 04:00:28;;;;;;;;;;;7.10;99.90;;;;;;5108468;27;19923;-72
2021/12/19 04:02:55;;;;;;;;;;;7.10;99.90;;;;;;5110400;27;19915;-72
2021/12/19 04:05:21;;;;;;;;;;;7.00;99.90;;;;;;5112832;27;19922;-74
2021/12/19 04:07:47;;;;;;;;;;;7.00;99.90;;;;;;5112673;27;20332;-72
2021/12/19 04:10:12;;;;;;;;;;;6.90;99.90;;;;;;5112227;27;19984;-72
2021/12/19 04:12:38;;;;;;;;;;;6.90;99.90;;;;;;5112149;27;19930;-72
2021/12/19 04:15:04;;;;;;;;;;;6.90;99.90;;;;;;5109674;27;19968;-71
2021/12/19 04:17:30;;;;;;;;;;;6.80;99.90;;;;;;5112752;28;19946;-72
2021/12/19 04:19:55;;;;;;;;;;;6.80;99.90;;;;;;5112359;27;20362;-72
2021/12/19 04:22:21;;;;;;;;;;;6.80;99.90;;;;;;5112675;27;19921;-72
2021/12/19 04:24:46;;;;;;;;;;;6.80;99.90;;;;;;5112467;27;19922;-71
2021/12/19 04:27:12;;;;;;;;;;;6.80;99.90;;;;;;5113134;27;20426;-73
2021/12/19 04:29:37;;;;;;;;;;;6.80;99.90;;;;;;5112328;27;19950;-72
2021/12/19 04:32:03;;;;;;;;;;;6.80;99.90;;;;;;5113032;27;19923;-71
2021/12/19 04:34:28;;;;;;;;;;;6.80;99.90;;;;;;5111847;27;19919;-72
2021/12/19 04:37:01;;;;;;;;;;;6.80;99.90;;;;;;5104760;27;19930;-71
2021/12/19 04:43:00;;;;;;;;;;;6.80;99.90;;;;;;5112441;28;19924;-74
2021/12/19 04:56:01;;;;;;;;;;;6.70;99.90;;;;;;5112762;28;19915;-72
2021/12/19 05:06:32;;;;;;;;;;;6.60;99.90;;;;;;5104054;28;20002;-72
2021/12/19 05:14:32;;;;;;;;;;;6.70;99.90;;;;;;5112104;28;19962;-72
2021/12/19 05:17:04;;;;;;;;;;;6.70;99.90;;;;;;5112427;28;20014;-72
2021/12/19 05:19:43;;;;;;;;;;;6.60;99.90;;;;;;5111363;28;20009;-71
2021/12/19 05:22:08;;;;;;;;;;;6.60;99.90;;;;;;5094724;28;19958;-71
2021/12/19 05:27:03;;;;;;;;;;;6.60;99.90;;;;;;5111296;27;21406;-72
2021/12/19 05:29:30;;;;;;;;;;;6.60;99.90;;;;;;5114972;27;19915;-71
2021/12/19 05:31:56;;;;;;;;;;;6.60;99.90;;;;;;5115406;27;19968;-71
2021/12/19 05:34:21;;;;;;;;;;;6.50;99.90;;;;;;5113420;27;19919;-72
2021/12/19 05:45:19;;;;;;;;;;;6.50;99.90;;;;;;5115702;27;19940;-73
2021/12/19 05:47:47;;;;;;;;;;;6.50;99.90;;;;;;5111488;27;19915;-72
2021/12/19 05:50:14;;;;;;;;;;;6.50;99.90;;;;;;5114283;27;20447;-71
2021/12/19 05:52:39;;;;;;;;;;;6.50;99.90;;;;;;5115142;27;20391;-72
2021/12/19 05:55:05;;;;;;;;;;;6.50;99.90;;;;;;5097891;27;19969;-72
2021/12/19 05:57:31;;;;;;;;;;;6.50;99.90;;;;;;5098801;27;19916;-72
2021/12/19 05:59:56;;;;;;;;;;;6.50;99.90;;;;;;5111354;27;19922;-72
2021/12/19 06:02:22;;;;;;;;;;;6.60;99.90;;;;;;5109801;27;19922;-72
2021/12/19 06:04:47;;;;;;;;;;;6.50;99.90;;;;;;5115975;27;19930;-71
2021/12/19 06:07:13;;;;;;;;;;;6.50;99.90;;;;;;5115075;27;20002;-71
2021/12/19 06:09:38;;;;;;;;;;;6.50;99.90;;;;;;5114940;27;20517;-72
2021/12/19 06:12:04;;;;;;;;;;;6.60;99.90;;;;;;5115121;27;19915;-71
2021/12/19 06:14:33;;;;;;;;;;;6.60;99.90;;;;;;5115294;27;19919;-72
2021/12/19 06:17:02;;;;;;;;;;;6.60;99.90;;;;;;5114778;27;19919;-72
2021/12/19 06:19:28;;;;;;;;;;;6.60;99.90;;;;;;5112054;27;19919;-72
2021/12/19 06:21:54;;;;;;;;;;;6.70;99.90;;;;;;5115631;27;19922;-73
2021/12/19 06:24:19;;;;;;;;;;;6.80;99.90;;;;;;5114901;27;19916;-71
2021/12/19 06:26:45;;;;;;;;;;;6.80;99.90;;;;;;5098380;27;19969;-72
2021/12/19 06:29:10;;;;;;;;;;;6.80;99.90;;;;;;5113204;27;19976;-71
2021/12/19 06:31:36;;;;;;;;;;;6.80;99.90;;;;;;5097467;27;19962;-72
2021/12/19 06:34:01;;;;;;;;;;;6.80;99.90;;;;;;5114821;27;19919;-71
2021/12/19 06:36:27;;;;;;;;;;;6.80;99.90;;;;;;5114765;27;19916;-71
2021/12/19 06:38:52;;;;;;;;;;;6.80;99.90;;;;;;5096820;27;19934;-72
2021/12/19 06:41:18;;;;;;;;;;;6.90;99.90;;;;;;5097607;27;20025;-72
2021/12/19 06:43:44;;;;;;;;;;;6.80;99.90;;;;;;5113305;27;19923;-72
2021/12/19 06:46:09;;;;;;;;;;;6.90;99.90;;;;;;5114593;27;19966;-70
2021/12/19 06:48:35;;;;;;;;;;;6.90;99.90;;;;;;5114026;27;19915;-72
2021/12/19 06:51:01;;;;;;;;;;;6.90;99.90;;;;;;5113892;27;19974;-71
2021/12/19 06:53:26;;;;;;;;;;;7.00;99.90;;;;;;5114881;27;19919;-73
2021/12/19 06:55:52;;;;;;;;;;;7.00;99.90;;;;;;5114776;27;20415;-72
2021/12/19 06:58:18;;;;;;;;;;;7.00;99.90;;;;;;5111799;27;20222;-71
2021/12/19 07:00:43;;;;;;;;;;;7.00;99.90;;;;;;5111956;27;19926;-72
2021/12/19 07:03:11;;;;;;;;;;;7.00;99.90;;;;;;5097270;27;19968;-71
2021/12/19 07:05:37;;;;;;;;;;;6.90;99.90;;;;;;5125947;27;20311;-71
2021/12/19 07:08:02;;;;;;;;;;;6.90;99.90;;;;;;5114455;27;19919;-72
2021/12/19 07:10:27;;;;;;;;;;;6.90;99.90;;;;;;5111862;27;20009;-73
2021/12/19 07:12:53;;;;;;;;;;;7.00;99.90;;;;;;5113473;27;19923;-72
2021/12/19 07:15:19;;;;;;;;;;;7.00;99.90;;;;;;5112813;27;19923;-72
2021/12/19 07:17:44;;;;;;;;;;;7.00;99.90;;;;;;5113911;27;20196;-71
2021/12/19 07:20:10;;;;;;;;;;;7.00;99.90;;;;;;5112846;27;19940;-71
2021/12/19 07:22:35;;;;;;;;;;;7.00;99.90;;;;;;5113696;27;19969;-72
2021/12/19 07:25:01;;;;;;;;;;;7.10;99.90;;;;;;5097206;27;19919;-72
2021/12/19 07:27:26;;;;;;;;;;;7.00;99.90;;;;;;5114032;27;19915;-73
2021/12/19 07:29:56;;;;;;;;;;;7.10;99.90;;;;;;5109891;27;19926;-72
2021/12/19 07:32:21;;;;;;;;;;;7.10;99.90;;;;;;5097047;27;20096;-73
2021/12/19 07:34:48;;;;;;;;;;;7.00;99.90;;;;;;5113418;27;19920;-70
2021/12/19 07:37:14;;;;;;;;;;;7.00;99.90;;;;;;5113088;27;20365;-72
2021/12/19 07:39:51;;;;;;;;;;;7.10;99.90;;;;;;5113111;27;19961;-73
2021/12/19 07:42:17;;;;;;;;;;;7.00;99.90;;;;;;5113511;27;19972;-73
2021/12/19 07:44:42;;;;;;;;;;;7.20;99.90;;;;;;5095273;27;19928;-72
2021/12/19 07:47:08;;;;;;;;;;;7.20;99.90;;;;;;5112996;27;19915;-71
2021/12/19 07:49:33;;;;;;;;;;;7.20;99.90;;;;;;5111207;27;19968;-71
2021/12/19 07:51:59;;;;;;;;;;;7.20;99.90;;;;;;5112128;27;19915;-72
2021/12/19 07:54:24;;;;;;;;;;;7.20;99.90;;;;;;5096744;27;19919;-71
2021/12/19 07:56:51;;;;;;;;;;;7.10;99.90;;;;;;5113704;27;19919;-71
2021/12/19 07:59:17;;;;;;;;;;;7.10;99.90;;;;;;5111860;27;19923;-71
2021/12/19 08:01:43;;;;;;;;;;;7.10;99.90;;;;;;5106854;27;20147;-70
2021/12/19 08:04:09;;;;;;;;;;;7.10;99.90;;;;;;5112925;27;19915;-72
2021/12/19 08:06:34;;;;;;;;;;;7.10;99.90;;;;;;5112571;27;20328;-72
2021/12/19 08:09:07;;;;;;;;;;;7.10;99.90;;;;;;5112546;27;19920;-71
2021/12/19 08:11:42;;;;;;;;;;;7.10;99.90;;;;;;5112454;27;19980;-71
2021/12/19 08:14:09;;;;;;;;;;;7.10;99.90;;;;;;5114091;27;19919;-71
2021/12/19 08:16:35;;;;;;;;;;;7.00;99.90;;;;;;5109398;27;20185;-72
2021/12/19 08:19:00;;;;;;;;;;;7.00;99.90;;;;;;5113478;27;19919;-70
2021/12/19 08:21:26;;;;;;;;;;;7.00;99.90;;;;;;5096908;27;19916;-71
2021/12/19 08:23:51;;;;;;;;;;;7.00;99.90;;;;;;5111528;27;19915;-72
2021/12/19 08:26:17;;;;;;;;;;;7.00;99.90;;;;;;5112826;27;19919;-71
2021/12/19 08:28:42;;;;;;;;;;;7.00;99.90;;;;;;5113173;27;19931;-71
2021/12/19 08:31:08;;;;;;;;;;;7.00;99.90;;;;;;5112329;27;20320;-72
2021/12/19 08:33:33;;;;;;;;;;;7.00;99.90;;;;;;5113523;27;19980;-72
2021/12/19 08:35:59;;;;;;;;;;;7.00;99.90;;;;;;5112810;27;19915;-72
2021/12/19 08:38:25;;;;;;;;;;;7.00;99.90;;;;;;5111401;28;20168;-71
2021/12/19 08:40:51;;;;;;;;;;;7.00;99.90;;;;;;5094459;28;19915;-71
2021/12/19 08:43:17;;;;;;;;;;;7.10;99.90;;;;;;5112402;28;19915;-71
2021/12/19 08:45:43;;;;;;;;;;;7.10;99.90;;;;;;5113506;28;20401;-71
2021/12/19 08:48:08;;;;;;;;;;;7.10;99.90;;;;;;5113244;27;19975;-71
2021/12/19 08:50:34;;;;;;;;;;;7.10;99.90;;;;;;5133984;27;19919;-72
2021/12/19 08:52:59;;;;;;;;;;;7.10;99.90;;;;;;5115628;28;19942;-71
2021/12/19 08:55:25;;;;;;;;;;;7.10;99.90;;;;;;5112046;28;19981;-73
2021/12/19 08:57:50;;;;;;;;;;;7.10;99.90;;;;;;5110662;28;19915;-71
2021/12/19 09:00:18;;;;;;;;;;;7.10;99.90;;;;;;5105564;27;20012;-72
2021/12/19 09:02:46;;;;;;;;;;;7.10;99.90;;;;;;5104747;28;19919;-72
2021/12/19 09:05:11;;;;;;;;;;;7.10;99.90;;;;;;5116401;27;19976;-72
2021/12/19 09:07:37;;;;;;;;;;;7.00;99.90;;;;;;5115773;27;20354;-72
2021/12/19 09:10:04;;;;;;;;;;;7.00;99.90;;;;;;5111921;27;19930;-72
2021/12/19 09:12:29;;;;;;;;;;;7.10;99.90;;;;;;5107219;27;19919;-72
2021/12/19 09:14:55;;;;;;;;;;;7.10;99.90;;;;;;5116248;27;20395;-72
2021/12/19 09:17:20;;;;;;;;;;;7.10;99.90;;;;;;5115008;27;20380;-73
2021/12/19 09:19:46;;;;;;;;;;;7.00;99.90;;;;;;5115911;27;19915;-73
2021/12/19 09:22:11;;;;;;;;;;;7.00;99.90;;;;;;5114757;27;20048;-72
2021/12/19 09:24:37;;;;;;;;;;;7.00;99.90;;;;;;5114960;27;19919;-71
2021/12/19 09:27:03;;;;;;;;;;;7.00;99.90;;;;;;5114468;27;19915;-73
2021/12/19 09:29:29;;;;;;;;;;;7.00;99.90;;;;;;5115184;27;20510;-72
2021/12/19 09:31:55;;;;;;;;;;;7.10;99.90;;;;;;5115511;27;20021;-73
2021/12/19 09:34:21;;;;;;;;;;;7.10;99.90;;;;;;5116719;27;19920;-71
2021/12/19 09:36:47;;;;;;;;;;;7.10;99.90;;;;;;5116090;27;20483;-72
2021/12/19 09:39:12;;;;;;;;;;;7.10;99.90;;;;;;5092584;27;19920;-72
2021/12/19 09:41:43;;;;;;;;;;;7.20;99.90;;;;;;5115872;27;19921;-71
2021/12/19 09:44:11;;;;;;;;;;;7.10;99.90;;;;;;5111889;27;19919;-73
2021/12/19 09:46:38;;;;;;;;;;;7.20;99.90;;;;;;5113754;27;19916;-71
2021/12/19 09:49:04;;;;;;;;;;;7.20;99.90;;;;;;5105503;27;19923;-71
2021/12/19 09:51:30;;;;;;;;;;;7.20;99.90;;;;;;5102180;27;20406;-72
2021/12/19 09:53:55;;;;;;;;;;;7.20;99.90;;;;;;5112602;27;19923;-73
2021/12/19 09:56:21;;;;;;;;;;;7.20;99.90;;;;;;5114872;27;19919;-70
2021/12/19 09:58:48;;;;;;;;;;;7.20;99.90;;;;;;5114912;27;19976;-73
2021/12/19 10:01:13;;;;;;;;;;;7.20;99.90;;;;;;5112081;27;20309;-72
2021/12/19 10:03:39;;;;;;;;;;;7.20;99.90;;;;;;5108844;27;19915;-71
2021/12/19 10:06:10;;;;;;;;;;;7.30;99.90;;;;;;5107715;27;19915;-68
2021/12/19 10:08:36;;;;;;;;;;;7.30;99.90;;;;;;5112752;27;19923;-66
2021/12/19 10:11:03;;;;;;;;;;;7.30;99.90;;;;;;5116562;27;19923;-68
2021/12/19 10:13:33;;;;;;;;;;;7.40;99.90;;;;;;5113942;27;19963;-68
2021/12/19 10:15:59;;;;;;;;;;;7.40;99.90;;;;;;5112605;28;19922;-66
2021/12/19 10:18:25;;;;;;;;;;;7.40;99.90;;;;;;5098204;27;19915;-66
2021/12/19 10:20:52;;;;;;;;;;;7.40;99.90;;;;;;5133529;27;19923;-66
2021/12/19 10:23:22;;;;;;;;;;;7.50;99.90;;;;;;5101030;27;20474;-66
2021/12/19 10:29:10;;;;;;;;;;;7.50;99.90;;;;;;5133554;27;20380;-67
2021/12/19 10:31:35;;;;;;;;;;;7.50;99.90;;;;;;5115908;27;19915;-68
2021/12/19 10:34:17;;;;;;;;;;;7.50;99.90;;;;;;5116330;27;19924;-65
2021/12/19 10:36:43;;;;;;;;;;;7.50;99.90;;;;;;5097122;28;20016;-65
2021/12/19 10:39:12;;;;;;;;;;;7.50;99.90;;;;;;5096653;28;20366;-67
2021/12/19 10:41:40;;;;;;;;;;;7.50;99.90;;;;;;5098328;28;19959;-67
2021/12/19 10:44:11;;;;;;;;;;;7.50;99.90;;;;;;5097543;28;19923;-69
2021/12/19 10:46:41;;;;;;;;;;;7.50;99.90;;;;;;5113658;28;20331;-68
2021/12/19 10:49:24;;;;;;;;;;;7.60;99.90;;;;;;5115546;28;20282;-67
2021/12/19 10:51:50;;;;;;;;;;;7.50;99.90;;;;;;5113816;28;19916;-66
2021/12/19 10:54:15;;;;;;;;;;;7.60;99.90;;;;;;5113965;28;19926;-68
2021/12/19 10:56:41;;;;;;;;;;;7.50;99.90;;;;;;5097506;28;19921;-67
2021/12/19 10:59:13;;;;;;;;;;;7.50;99.90;;;;;;5096353;28;19915;-67
2021/12/19 11:01:41;;;;;;;;;;;7.60;99.90;;;;;;5098521;27;19919;-69
2021/12/19 11:04:19;;;;;;;;;;;7.60;99.90;;;;;;5134604;27;19915;-70
2021/12/19 11:07:07;;;;;;;;;;;7.60;99.90;;;;;;5138135;27;19926;-66
2021/12/19 11:09:34;;;;;;;;;;;7.60;99.90;;;;;;5107798;27;20376;-67
2021/12/19 11:12:01;;;;;;;;;;;7.60;99.90;;;;;;5116374;27;19938;-67
2021/12/19 11:14:37;;;;;;;;;;;7.60;99.90;;;;;;5116038;27;20362;-68
2021/12/19 11:17:10;;;;;;;;;;;7.60;99.90;;;;;;5099713;27;20384;-69
2021/12/19 11:19:37;;;;;;;;;;;7.60;99.90;;;;;;5105772;27;19970;-68
2021/12/19 11:22:03;;;;;;;;;;;7.60;99.90;;;;;;5116677;27;20258;-66
2021/12/19 11:24:28;;;;;;;;;;;7.60;99.90;;;;;;5115539;27;19923;-67
2021/12/19 11:26:55;;;;;;;;;;;7.70;99.90;;;;;;5105801;27;19915;-67
2021/12/19 11:29:21;;;;;;;;;;;7.70;99.90;;;;;;5113952;27;19998;-67
2021/12/19 11:31:49;;;;;;;;;;;7.70;99.90;;;;;;5113942;27;20035;-68
2021/12/19 11:34:21;;;;;;;;;;;7.60;99.90;;;;;;5114938;27;19938;-67
2021/12/19 11:37:07;;;;;;;;;;;7.70;99.90;;;;;;5114029;27;19915;-65
2021/12/19 11:39:35;;;;;;;;;;;7.70;99.90;;;;;;5094976;27;19915;-66
2021/12/19 11:42:05;;;;;;;;;;;7.70;99.90;;;;;;5113169;27;19915;-68
2021/12/19 11:44:32;;;;;;;;;;;7.70;99.90;;;;;;5094385;28;20285;-66
2021/12/19 11:46:59;;;;;;;;;;;7.70;99.90;;;;;;5102133;27;19923;-66
2021/12/19 11:49:27;;;;;;;;;;;7.80;99.90;;;;;;5115017;27;19922;-67
2021/12/19 11:52:12;;;;;;;;;;;7.80;99.90;;;;;;5115508;27;19930;-66
2021/12/19 11:54:37;;;;;;;;;;;7.80;99.90;;;;;;5115148;27;19919;-66
2021/12/19 11:57:06;;;;;;;;;;;7.90;99.90;;;;;;5110959;27;20293;-68
2021/12/19 11:59:32;;;;;;;;;;;7.90;99.90;;;;;;5114713;27;19960;-67
2021/12/19 12:02:16;;;;;;;;;;;7.90;99.90;;;;;;5096436;27;20323;-67
2021/12/19 12:04:42;;;;;;;;;;;8.00;99.90;;;;;;5113776;27;19919;-66
2021/12/19 12:07:07;;;;;;;;;;;8.00;99.90;;;;;;5113481;27;19938;-68
2021/12/19 12:09:39;;;;;;;;;;;7.90;99.90;;;;;;5097293;27;19964;-66
2021/12/19 12:12:08;;;;;;;;;;;7.90;99.90;;;;;;5115677;27;20476;-68
2021/12/19 12:14:38;;;;;;;;;;;7.90;99.90;;;;;;5114798;27;20425;-67
2021/12/19 12:17:09;;;;;;;;;;;7.90;99.90;;;;;;5114081;27;20002;-66
2021/12/19 12:19:42;;;;;;;;;;;7.90;99.90;;;;;;5112334;27;19923;-69
2021/12/19 12:22:36;;;;;;;;;;;8.00;99.90;;;;;;5113594;27;19967;-68
2021/12/19 12:25:08;;;;;;;;;;;8.00;99.90;;;;;;5111156;27;20036;-69
2021/12/19 12:27:37;;;;;;;;;;;8.10;99.90;;;;;;5113272;27;19919;-69
2021/12/19 12:30:07;;;;;;;;;;;8.10;99.90;;;;;;5109679;27;19919;-66
2021/12/19 12:32:32;;;;;;;;;;;8.10;99.90;;;;;;5113489;27;19919;-68
2021/12/19 12:34:58;;;;;;;;;;;8.10;99.90;;;;;;5109420;28;20011;-69
2021/12/19 12:37:23;;;;;;;;;;;8.10;99.90;;;;;;5128126;27;20262;-66
2021/12/19 12:40:15;;;;;;;;;;;8.00;99.90;;;;;;5114631;28;19962;-70
2021/12/19 12:42:57;;;;;;;;;;;8.10;99.90;;;;;;5113532;28;19923;-67
2021/12/19 12:45:23;;;;;;;;;;;8.00;99.90;;;;;;5114583;28;19919;-65
2021/12/19 12:47:49;;;;;;;;;;;8.10;99.90;;;;;;5114324;28;19923;-65
2021/12/19 12:50:15;;;;;;;;;;;8.00;99.90;;;;;;5110107;28;19915;-66
2021/12/19 12:52:40;;;;;;;;;;;8.10;99.90;;;;;;5100112;28;19922;-66
2021/12/19 12:55:06;;;;;;;;;;;8.00;99.90;;;;;;5094690;28;20525;-66
2021/12/19 12:57:35;;;;;;;;;;;8.00;99.90;;;;;;5094312;28;20006;-68
2021/12/19 13:00:00;;;;;;;;;;;8.00;99.90;;;;;;5094221;28;20323;-67
2021/12/19 13:02:40;;;;;;;;;;;8.00;99.90;;;;;;5093377;28;19916;-67
2021/12/19 13:05:09;;;;;;;;;;;8.00;99.90;;;;;;5095276;27;20451;-67
2021/12/19 13:07:35;;;;;;;;;;;8.00;99.90;;;;;;5126009;28;19964;-67
2021/12/19 13:10:00;;;;;;;;;;;8.00;99.90;;;;;;5130858;28;20040;-66
2021/12/19 13:12:34;;;;;;;;;;;8.00;99.90;;;;;;5114341;28;19916;-65
2021/12/19 13:15:04;;;;;;;;;;;8.00;99.90;;;;;;5114250;28;19919;-67
2021/12/19 13:17:37;;;;;;;;;;;8.00;99.90;;;;;;5113479;28;19916;-66
2021/12/19 13:20:03;;;;;;;;;;;8.00;99.90;;;;;;5113716;27;19916;-66
2021/12/19 13:22:34;;;;;;;;;;;8.00;99.90;;;;;;5118867;28;19921;-67
2021/12/19 13:25:05;;;;;;;;;;;8.00;99.90;;;;;;5114631;28;19915;-68
2021/12/19 13:27:31;;;;;;;;;;;8.00;99.90;;;;;;5093785;28;19923;-65
2021/12/19 13:30:08;;;;;;;;;;;8.00;99.90;;;;;;5093850;28;19961;-66
2021/12/19 13:32:33;;;;;;;;;;;8.00;99.90;;;;;;5093666;28;20018;-68
2021/12/19 13:35:00;;;;;;;;;;;8.00;99.90;;;;;;5093532;28;20022;-67
2021/12/19 13:37:31;;;;;;;;;;;8.00;99.90;;;;;;5094554;28;19916;-66
2021/12/19 13:39:57;;;;;;;;;;;8.00;99.90;;;;;;5092895;28;20323;-66
2021/12/19 13:42:35;;;;;;;;;;;8.00;99.90;;;;;;5094083;28;19927;-67
2021/12/19 13:45:01;;;;;;;;;;;8.00;99.90;;;;;;5113792;28;20038;-67
2021/12/19 13:47:26;;;;;;;;;;;8.00;99.90;;;;;;5112873;28;19997;-68
2021/12/19 13:49:52;;;;;;;;;;;7.90;99.90;;;;;;5112360;27;19919;-68
2021/12/19 13:52:17;;;;;;;;;;;8.00;99.90;;;;;;5114929;27;19919;-67
2021/12/19 13:54:43;;;;;;;;;;;7.90;99.90;;;;;;5116875;27;20014;-67
2021/12/19 13:57:22;;;;;;;;;;;7.90;99.90;;;;;;5116815;27;19927;-66
2021/12/19 13:59:48;;;;;;;;;;;7.90;99.90;;;;;;5113717;27;19922;-67
2021/12/19 14:02:13;;;;;;;;;;;7.90;99.90;;;;;;5112845;27;19919;-69
2021/12/19 14:04:40;;;;;;;;;;;7.90;99.90;;;;;;5102330;27;19915;-67
2021/12/19 14:07:10;;;;;;;;;;;7.90;99.90;;;;;;5115590;27;19915;-67
2021/12/19 14:09:44;;;;;;;;;;;7.90;99.90;;;;;;5115687;27;19923;-68
2021/12/19 14:12:12;;;;;;;;;;;7.90;99.90;;;;;;5115723;27;19923;-67
2021/12/19 14:14:37;;;;;;;;;;;8.00;99.90;;;;;;5095593;28;19919;-68
2021/12/19 14:17:03;;;;;;;;;;;8.00;99.90;;;;;;5099357;27;20267;-66
2021/12/19 14:19:32;;;;;;;;;;;8.00;99.90;;;;;;5106655;27;19920;-68
2021/12/19 14:22:01;;;;;;;;;;;8.00;99.90;;;;;;5114832;27;20362;-68
2021/12/19 14:24:28;;;;;;;;;;;8.00;99.90;;;;;;5115880;27;20255;-68
2021/12/19 14:27:03;;;;;;;;;;;8.00;99.90;;;;;;5113669;27;19927;-67
2021/12/19 14:29:28;;;;;;;;;;;8.00;99.90;;;;;;5114908;27;19938;-68
2021/12/19 14:31:56;;;;;;;;;;;8.00;99.90;;;;;;5115473;27;19919;-68
2021/12/19 14:34:23;;;;;;;;;;;7.90;99.90;;;;;;5115522;27;19983;-66
2021/12/19 14:36:49;;;;;;;;;;;7.90;99.90;;;;;;5115193;27;19915;-68
2021/12/19 14:39:18;;;;;;;;;;;7.90;99.90;;;;;;5114525;27;20385;-67
2021/12/19 14:41:44;;;;;;;;;;;7.90;99.90;;;;;;5115997;27;19919;-67
2021/12/19 14:44:20;;;;;;;;;;;7.90;99.90;;;;;;5110301;27;20382;-67
2021/12/19 14:46:45;;;;;;;;;;;7.90;99.90;;;;;;5115231;27;19922;-68
2021/12/19 14:49:11;;;;;;;;;;;7.80;99.90;;;;;;5115099;27;19915;-67
2021/12/19 14:51:37;;;;;;;;;;;7.80;99.90;;;;;;5115160;27;20357;-68
2021/12/19 14:54:02;;;;;;;;;;;7.90;99.90;;;;;;5133916;27;20021;-67
2021/12/19 14:56:29;;;;;;;;;;;7.80;99.90;;;;;;5115310;27;19915;-67
2021/12/19 14:58:59;;;;;;;;;;;7.80;99.90;;;;;;5111173;27;19919;-68
2021/12/19 15:01:31;;;;;;;;;;;7.90;99.90;;;;;;5113751;27;20018;-68
2021/12/19 15:03:58;;;;;;;;;;;7.80;99.90;;;;;;5107698;27;19916;-69
2021/12/19 15:06:25;;;;;;;;;;;7.80;99.90;;;;;;5114662;27;19980;-67
2021/12/19 15:08:52;;;;;;;;;;;7.80;99.90;;;;;;5114677;27;19915;-67
2021/12/19 15:11:18;;;;;;;;;;;7.90;99.90;;;;;;5110461;27;19920;-67
2021/12/19 15:13:44;;;;;;;;;;;7.90;99.90;;;;;;5115022;27;19930;-67
2021/12/19 15:16:09;;;;;;;;;;;7.90;99.90;;;;;;5098864;27;20350;-66
2021/12/19 15:18:35;;;;;;;;;;;8.00;99.90;;;;;;5113390;27;20293;-66
2021/12/19 15:21:02;;;;;;;;;;;7.90;99.90;;;;;;5098463;27;20022;-69
2021/12/19 15:23:27;;;;;;;;;;;7.90;99.90;;;;;;5115797;27;19922;-69
2021/12/19 15:25:53;;;;;;;;;;;8.00;99.90;;;;;;5114800;27;20294;-68
2021/12/19 15:28:20;;;;;;;;;;;8.00;99.90;;;;;;5098267;27;20006;-68
2021/12/19 15:30:46;;;;;;;;;;;8.00;99.90;;;;;;5111834;27;20355;-67
2021/12/19 15:33:12;;;;;;;;;;;7.90;99.90;;;;;;5110770;27;19919;-67
2021/12/19 15:35:37;;;;;;;;;;;7.90;99.90;;;;;;5114422;27;19916;-69